Time;durP1;ratioP1;P1;durP2;ratioP2;P2;SDS_P1;SDS_P2;PMS_P1;PMS_P2;Temp;Humidity;BMP_temperature;BMP_pressure;BME280_temperature;BME280_humidity;BME280_pressure;Samples;Min_cycle;Max_cycle;Signal;HPM_P1;HPM_P2
2022/02/25 00:00:12;;;;;;;1.63;1.52;;;;;;;;;;5060640;28;20309;-76
2022/02/25 00:02:40;;;;;;;1.40;1.20;;;;;;;;;;5066276;28;20206;-76
2022/02/25 00:05:07;;;;;;;3.58;1.92;;;;;;;;;;5059949;28;20205;-75
2022/02/25 00:07:34;;;;;;;3.53;1.83;;;;;;;;;;5067601;28;20589;-76
2022/02/25 00:10:02;;;;;;;2.90;1.75;;;;;;;;;;5062498;28;20194;-77
2022/02/25 00:12:29;;;;;;;2.35;1.60;;;;;;;;;;5066753;28;20207;-75
2022/02/25 00:14:57;;;;;;;2.15;1.80;;;;;;;;;;5067148;28;20206;-76
2022/02/25 00:17:24;;;;;;;2.85;1.80;;;;;;;;;;5068449;28;20194;-75
2022/02/25 00:19:51;;;;;;;1.83;1.30;;;;;;;;;;5065156;28;20225;-75
2022/02/25 00:22:18;;;;;;;2.20;1.92;;;;;;;;;;5069602;28;20202;-75
2022/02/25 00:24:45;;;;;;;2.60;1.80;;;;;;;;;;5062648;28;20216;-74
2022/02/25 00:27:12;;;;;;;2.25;1.42;;;;;;;;;;5052109;28;20191;-75
2022/02/25 00:29:39;;;;;;;1.60;1.50;;;;;;;;;;5058170;28;20675;-77
2022/02/25 00:32:09;;;;;;;1.50;1.33;;;;;;;;;;5069818;28;20276;-76
2022/02/25 00:34:36;;;;;;;2.10;1.88;;;;;;;;;;5058511;28;20199;-76
2022/02/25 00:37:03;;;;;;;1.88;1.70;;;;;;;;;;5070964;28;20191;-76
2022/02/25 00:39:30;;;;;;;1.50;1.40;;;;;;;;;;5067643;28;20218;-76
2022/02/25 00:41:57;;;;;;;2.05;1.58;;;;;;;;;;5067889;28;20221;-75
2022/02/25 00:44:24;;;;;;;1.80;1.40;;;;;;;;;;5066006;28;20198;-75
2022/02/25 00:46:51;;;;;;;1.95;1.70;;;;;;;;;;5060626;28;20205;-79
2022/02/25 00:49:20;;;;;;;2.17;1.42;;;;;;;;;;5056741;28;20198;-75
2022/02/25 00:51:47;;;;;;;5.03;1.40;;;;;;;;;;5060547;28;20194;-77
2022/02/25 00:54:14;;;;;;;2.63;1.52;;;;;;;;;;5060941;28;20198;-78
2022/02/25 00:56:41;;;;;;;1.50;1.38;;;;;;;;;;5060819;28;20198;-75
2022/02/25 00:59:08;;;;;;;2.75;1.45;;;;;;;;;;5057440;28;20202;-81
2022/02/25 01:01:35;;;;;;;1.73;1.60;;;;;;;;;;5059138;28;20205;-77
2022/02/25 01:04:02;;;;;;;3.08;1.50;;;;;;;;;;5057147;28;20200;-82
2022/02/25 01:06:31;;;;;;;1.60;1.30;;;;;;;;;;5065735;28;20198;-78
2022/02/25 01:08:58;;;;;;;3.00;1.50;;;;;;;;;;5069399;28;20596;-77
2022/02/25 01:11:25;;;;;;;1.90;1.60;;;;;;;;;;5063392;28;20194;-77
2022/02/25 01:13:52;;;;;;;4.10;1.60;;;;;;;;;;5067259;28;20197;-77
2022/02/25 01:16:20;;;;;;;1.50;1.40;;;;;;;;;;5060876;28;20201;-77
2022/02/25 01:18:47;;;;;;;1.85;1.70;;;;;;;;;;5060333;28;20190;-77
2022/02/25 01:21:14;;;;;;;1.70;1.33;;;;;;;;;;5052667;28;20226;-77
2022/02/25 01:23:42;;;;;;;2.00;1.30;;;;;;;;;;5070163;28;20195;-77
2022/02/25 01:26:10;;;;;;;2.75;1.98;;;;;;;;;;5068558;28;20221;-77
2022/02/25 01:28:37;;;;;;;2.78;1.63;;;;;;;;;;5071452;28;20197;-77
2022/02/25 01:31:04;;;;;;;3.10;1.77;;;;;;;;;;5064946;28;20229;-77
2022/02/25 01:33:31;;;;;;;3.75;1.45;;;;;;;;;;5055780;28;20210;-78
2022/02/25 01:36:00;;;;;;;5.97;2.05;;;;;;;;;;5069969;28;20197;-76
2022/02/25 01:38:27;;;;;;;1.90;1.60;;;;;;;;;;5064436;28;20279;-78
2022/02/25 01:40:56;;;;;;;2.38;1.30;;;;;;;;;;5066915;28;20222;-76
2022/02/25 01:43:23;;;;;;;4.88;1.80;;;;;;;;;;5063866;28;20208;-80
2022/02/25 01:45:50;;;;;;;3.80;1.60;;;;;;;;;;5054804;28;20199;-76
2022/02/25 01:48:19;;;;;;;3.38;2.53;;;;;;;;;;5064581;28;20186;-79
2022/02/25 01:50:47;;;;;;;1.95;1.70;;;;;;;;;;5067271;28;20231;-77
2022/02/25 01:53:14;;;;;;;2.97;1.35;;;;;;;;;;5062852;28;20566;-75
2022/02/25 01:55:43;;;;;;;2.45;1.35;;;;;;;;;;5060744;28;20198;-78
2022/02/25 01:58:11;;;;;;;4.60;1.85;;;;;;;;;;5069634;28;20194;-75
2022/02/25 02:00:38;;;;;;;3.85;1.60;;;;;;;;;;5063019;28;22146;-82
2022/02/25 02:03:06;;;;;;;3.83;1.75;;;;;;;;;;5063978;28;20194;-76
2022/02/25 02:05:33;;;;;;;3.30;1.35;;;;;;;;;;5062538;28;20195;-79
2022/02/25 02:08:01;;;;;;;4.10;1.92;;;;;;;;;;5068860;28;20194;-75
2022/02/25 02:10:28;;;;;;;1.95;1.50;;;;;;;;;;5060744;28;20264;-82
2022/02/25 02:12:55;;;;;;;3.50;1.70;;;;;;;;;;5057101;28;20194;-81
2022/02/25 02:15:24;;;;;;;2.05;1.45;;;;;;;;;;5066828;28;20202;-76
2022/02/25 02:17:53;;;;;;;5.43;1.75;;;;;;;;;;5064565;28;20194;-78
2022/02/25 02:20:20;;;;;;;5.60;2.28;;;;;;;;;;5062270;28;20222;-82
2022/02/25 02:22:48;;;;;;;4.80;1.42;;;;;;;;;;5067378;28;20191;-76
2022/02/25 02:25:16;;;;;;;3.42;2.55;;;;;;;;;;5066970;28;20209;-75
2022/02/25 02:30:28;;;;;;;7.35;2.08;;;;;;;;;;5065657;28;20276;-82
2022/02/25 02:32:55;;;;;;;5.68;1.95;;;;;;;;;;5068290;28;20202;-76
2022/02/25 02:35:22;;;;;;;3.13;1.40;;;;;;;;;;5063015;28;20203;-79
2022/02/25 02:37:51;;;;;;;5.10;1.75;;;;;;;;;;5067374;28;20191;-78
2022/02/25 02:40:18;;;;;;;3.15;1.60;;;;;;;;;;5062029;28;20246;-78
2022/02/25 02:42:46;;;;;;;2.65;1.90;;;;;;;;;;5064699;28;20233;-75
2022/02/25 02:45:15;;;;;;;4.05;2.45;;;;;;;;;;5064500;28;20198;-75
2022/02/25 02:47:42;;;;;;;5.30;1.88;;;;;;;;;;5058966;28;20214;-76
2022/02/25 02:50:10;;;;;;;1.45;1.35;;;;;;;;;;5069274;28;20202;-76
2022/02/25 02:52:37;;;;;;;3.78;1.70;;;;;;;;;;5068331;28;20646;-75
2022/02/25 02:55:06;;;;;;;2.65;1.33;;;;;;;;;;5063734;28;20199;-75
2022/02/25 02:57:33;;;;;;;3.05;1.90;;;;;;;;;;5054650;28;20245;-77
2022/02/25 03:00:00;;;;;;;2.13;1.50;;;;;;;;;;5060145;28;20198;-75
2022/02/25 03:02:27;;;;;;;2.63;1.23;;;;;;;;;;5062835;28;20694;-76
2022/02/25 03:04:54;;;;;;;3.45;1.63;;;;;;;;;;5066149;28;20240;-75
2022/02/25 03:07:21;;;;;;;3.00;1.75;;;;;;;;;;5069178;28;20194;-75
2022/02/25 03:09:48;;;;;;;4.15;1.60;;;;;;;;;;5062835;28;20199;-78
2022/02/25 03:12:16;;;;;;;4.53;1.65;;;;;;;;;;5062697;28;20206;-86
2022/02/25 03:14:43;;;;;;;4.50;1.50;;;;;;;;;;5066527;28;20202;-77
2022/02/25 03:17:11;;;;;;;3.28;1.77;;;;;;;;;;5063235;28;20199;-81
2022/02/25 03:19:39;;;;;;;4.43;1.55;;;;;;;;;;5067601;28;20814;-75
2022/02/25 03:22:06;;;;;;;3.05;1.80;;;;;;;;;;5060194;28;20218;-76
2022/02/25 03:24:33;;;;;;;2.35;1.42;;;;;;;;;;5070547;28;20206;-78
2022/02/25 03:27:00;;;;;;;2.35;1.70;;;;;;;;;;5060030;28;20203;-74
2022/02/25 03:29:28;;;;;;;3.25;1.20;;;;;;;;;;5070125;28;20194;-78
2022/02/25 03:31:55;;;;;;;4.93;1.80;;;;;;;;;;5063977;28;20198;-76
2022/02/25 03:34:22;;;;;;;3.85;1.60;;;;;;;;;;5067946;28;20201;-75
2022/02/25 03:36:49;;;;;;;4.53;1.83;;;;;;;;;;5066892;28;20198;-78
2022/02/25 03:39:16;;;;;;;5.55;1.58;;;;;;;;;;5066644;28;20650;-75
2022/02/25 03:41:43;;;;;;;1.73;1.23;;;;;;;;;;5068291;28;20210;-76
2022/02/25 03:44:10;;;;;;;2.13;1.30;;;;;;;;;;5071397;28;20194;-80
2022/02/25 03:46:39;;;;;;;2.05;1.60;;;;;;;;;;5066238;28;20186;-77
2022/02/25 03:49:06;;;;;;;2.00;1.40;;;;;;;;;;5057244;28;20233;-75
2022/02/25 03:51:33;;;;;;;3.60;1.48;;;;;;;;;;5069043;28;20190;-81
2022/02/25 03:54:00;;;;;;;2.45;1.40;;;;;;;;;;5070659;28;20650;-76
2022/02/25 03:56:27;;;;;;;4.47;2.35;;;;;;;;;;5062491;28;20625;-77
2022/02/25 03:58:54;;;;;;;2.58;1.35;;;;;;;;;;5059709;28;20194;-76
2022/02/25 04:01:23;;;;;;;3.58;1.92;;;;;;;;;;5063758;28;20688;-80
2022/02/25 04:03:52;;;;;;;3.70;2.10;;;;;;;;;;5064750;28;20286;-76
2022/02/25 04:06:19;;;;;;;2.30;1.70;;;;;;;;;;5059517;28;20198;-76
2022/02/25 04:08:46;;;;;;;1.38;1.20;;;;;;;;;;5070528;28;20268;-83
2022/02/25 04:11:13;;;;;;;4.25;1.50;;;;;;;;;;5065931;28;20201;-76
2022/02/25 04:13:41;;;;;;;2.40;1.30;;;;;;;;;;5065775;28;20243;-76
2022/02/25 04:16:08;;;;;;;3.97;1.23;;;;;;;;;;5065418;28;20542;-77
2022/02/25 04:18:35;;;;;;;3.17;1.60;;;;;;;;;;5070187;28;20194;-77
2022/02/25 04:21:03;;;;;;;3.15;1.27;;;;;;;;;;5057207;28;20537;-76
2022/02/25 04:23:30;;;;;;;5.80;2.10;;;;;;;;;;5062899;28;20248;-77
2022/02/25 04:25:57;;;;;;;3.20;1.33;;;;;;;;;;5065846;28;20210;-78
2022/02/25 04:28:24;;;;;;;4.03;1.63;;;;;;;;;;5071051;28;20221;-78
2022/02/25 04:30:52;;;;;;;4.10;1.80;;;;;;;;;;5066342;28;20202;-77
2022/02/25 04:33:19;;;;;;;2.40;1.40;;;;;;;;;;5064505;28;20347;-78
2022/02/25 04:35:46;;;;;;;3.60;1.83;;;;;;;;;;5067915;28;20191;-81
2022/02/25 04:38:14;;;;;;;3.10;1.48;;;;;;;;;;5071977;28;20194;-78
2022/02/25 04:40:42;;;;;;;4.72;1.92;;;;;;;;;;5065356;28;20260;-77
2022/02/25 04:43:09;;;;;;;2.20;1.50;;;;;;;;;;5068285;28;20296;-79
2022/02/25 04:45:36;;;;;;;5.95;2.25;;;;;;;;;;5061963;28;20194;-78
2022/02/25 04:48:03;;;;;;;2.63;1.42;;;;;;;;;;5064675;28;20194;-79
2022/02/25 04:50:30;;;;;;;3.00;1.45;;;;;;;;;;5064802;28;20199;-79
2022/02/25 04:52:57;;;;;;;3.25;1.58;;;;;;;;;;5063580;28;20198;-78
2022/02/25 04:55:26;;;;;;;2.38;1.90;;;;;;;;;;5065610;28;20703;-77
2022/02/25 04:57:53;;;;;;;2.42;1.60;;;;;;;;;;5065890;28;20283;-79
2022/02/25 05:00:21;;;;;;;5.43;1.67;;;;;;;;;;5066133;28;20610;-80
2022/02/25 05:02:48;;;;;;;1.92;1.38;;;;;;;;;;5065732;28;20260;-79
2022/02/25 05:05:16;;;;;;;4.22;1.60;;;;;;;;;;5064352;28;20190;-75
2022/02/25 05:07:43;;;;;;;8.63;1.30;;;;;;;;;;5067081;28;20194;-77
2022/02/25 05:10:10;;;;;;;2.42;1.48;;;;;;;;;;5061437;28;20202;-76
2022/02/25 05:12:39;;;;;;;2.08;1.40;;;;;;;;;;5053826;28;20210;-77
2022/02/25 05:20:50;;;;;;;11.95;1.83;;;;;;;;;;5006038;28;20263;-77
2022/02/25 05:23:18;;;;;;;1.95;1.23;;;;;;;;;;5037211;28;20545;-75
2022/02/25 05:25:45;;;;;;;2.13;1.30;;;;;;;;;;5062062;28;20221;-76
2022/02/25 05:28:13;;;;;;;2.28;1.58;;;;;;;;;;5059707;28;20210;-78
2022/02/25 05:30:41;;;;;;;5.30;1.70;;;;;;;;;;5065931;28;20949;-76
2022/02/25 05:33:08;;;;;;;1.85;1.23;;;;;;;;;;5069607;28;20202;-81
2022/02/25 05:35:35;;;;;;;2.33;1.55;;;;;;;;;;5065799;28;20187;-80
2022/02/25 05:38:02;;;;;;;2.90;1.52;;;;;;;;;;5063360;28;20662;-77
2022/02/25 05:40:30;;;;;;;1.70;1.40;;;;;;;;;;5060301;28;20204;-78
2022/02/25 05:42:57;;;;;;;3.13;1.30;;;;;;;;;;5070171;28;20217;-77
2022/02/25 05:45:25;;;;;;;2.92;1.48;;;;;;;;;;5067893;28;20209;-78
2022/02/25 05:47:53;;;;;;;2.90;2.38;;;;;;;;;;5064762;28;20205;-76
2022/02/25 05:50:20;;;;;;;2.20;1.45;;;;;;;;;;5063998;28;20201;-77
2022/02/25 05:52:48;;;;;;;3.70;1.50;;;;;;;;;;5070499;28;20213;-79
2022/02/25 05:55:16;;;;;;;4.43;3.13;;;;;;;;;;5062065;28;20190;-78
2022/02/25 05:57:43;;;;;;;1.83;1.60;;;;;;;;;;5060797;28;20191;-78
2022/02/25 06:00:11;;;;;;;6.97;1.92;;;;;;;;;;5061782;28;20194;-78
2022/02/25 06:02:40;;;;;;;8.98;2.55;;;;;;;;;;5066259;28;20217;-75
2022/02/25 06:05:07;;;;;;;8.85;1.80;;;;;;;;;;5063415;28;20190;-76
2022/02/25 06:07:34;;;;;;;6.85;1.95;;;;;;;;;;5066878;28;20190;-76
2022/02/25 06:10:01;;;;;;;1.92;1.40;;;;;;;;;;5065834;28;20229;-76
2022/02/25 06:12:29;;;;;;;4.65;1.40;;;;;;;;;;5064380;28;20199;-77
2022/02/25 06:14:56;;;;;;;5.20;1.80;;;;;;;;;;5060562;28;20558;-80
2022/02/25 06:17:23;;;;;;;2.95;1.45;;;;;;;;;;5062647;28;20209;-76
2022/02/25 06:19:51;;;;;;;3.65;1.60;;;;;;;;;;5066607;28;20225;-80
2022/02/25 06:22:18;;;;;;;8.07;1.67;;;;;;;;;;5059852;28;20222;-78
2022/02/25 06:24:45;;;;;;;1.63;1.52;;;;;;;;;;5066004;28;20221;-82
2022/02/25 06:27:12;;;;;;;3.75;2.17;;;;;;;;;;5054434;28;20680;-78
2022/02/25 06:29:39;;;;;;;5.47;1.55;;;;;;;;;;5064350;28;20198;-76
2022/02/25 06:32:07;;;;;;;6.20;1.50;;;;;;;;;;5057107;28;20194;-77
2022/02/25 06:34:35;;;;;;;3.08;1.80;;;;;;;;;;5063847;28;20201;-77
2022/02/25 06:37:03;;;;;;;4.97;1.95;;;;;;;;;;5066001;28;20542;-76
2022/02/25 06:39:30;;;;;;;6.13;1.50;;;;;;;;;;5067857;28;20217;-80
2022/02/25 06:41:57;;;;;;;2.72;1.65;;;;;;;;;;5063266;28;20222;-76
2022/02/25 06:44:24;;;;;;;5.65;1.60;;;;;;;;;;5069943;28;20663;-76
2022/02/25 06:46:51;;;;;;;6.65;2.15;;;;;;;;;;5058820;28;20191;-76
2022/02/25 06:49:19;;;;;;;5.75;2.35;;;;;;;;;;5064593;28;20194;-79
2022/02/25 06:51:46;;;;;;;6.90;2.22;;;;;;;;;;5067446;28;20199;-77
2022/02/25 06:54:14;;;;;;;4.10;1.73;;;;;;;;;;5073536;28;20194;-78
2022/02/25 06:56:41;;;;;;;3.63;1.77;;;;;;;;;;5055207;28;20190;-84
2022/02/25 06:59:09;;;;;;;3.63;1.52;;;;;;;;;;5063137;28;20592;-83
2022/02/25 07:01:37;;;;;;;9.00;3.75;;;;;;;;;;5068238;28;20275;-77
2022/02/25 07:04:04;;;;;;;5.57;2.08;;;;;;;;;;5066965;28;20251;-79
2022/02/25 07:06:33;;;;;;;3.55;1.92;;;;;;;;;;5069774;28;20224;-78
2022/02/25 07:09:01;;;;;;;5.63;1.90;;;;;;;;;;5066798;28;20194;-77
2022/02/25 07:11:29;;;;;;;2.00;1.80;;;;;;;;;;5064216;28;20194;-79
2022/02/25 07:13:56;;;;;;;5.88;2.33;;;;;;;;;;5064921;28;20261;-77
2022/02/25 07:16:23;;;;;;;6.35;2.45;;;;;;;;;;5067719;28;20194;-77
2022/02/25 07:18:50;;;;;;;4.68;2.40;;;;;;;;;;5066485;28;20190;-80
2022/02/25 07:21:18;;;;;;;3.65;1.88;;;;;;;;;;5069458;28;20631;-78
2022/02/25 07:23:45;;;;;;;5.35;1.95;;;;;;;;;;5070558;28;20259;-77
2022/02/25 07:26:12;;;;;;;4.13;1.58;;;;;;;;;;5060236;28;20688;-79
2022/02/25 07:28:40;;;;;;;5.90;2.60;;;;;;;;;;5066111;28;20201;-75
2022/02/25 07:31:07;;;;;;;3.25;1.92;;;;;;;;;;5069142;28;20194;-75
2022/02/25 07:33:34;;;;;;;3.55;1.80;;;;;;;;;;5066774;28;20190;-76
2022/02/25 07:36:01;;;;;;;2.83;1.42;;;;;;;;;;5066410;28;20810;-76
2022/02/25 07:38:28;;;;;;;4.30;1.65;;;;;;;;;;5065998;28;20195;-78
2022/02/25 07:40:55;;;;;;;2.60;1.75;;;;;;;;;;5063873;28;20244;-77
2022/02/25 07:43:22;;;;;;;5.82;1.48;;;;;;;;;;5061133;28;20229;-77
2022/02/25 07:45:52;;;;;;;9.18;2.20;;;;;;;;;;5067083;28;20189;-79
2022/02/25 07:48:19;;;;;;;3.22;1.63;;;;;;;;;;5063744;28;20202;-77
2022/02/25 07:50:46;;;;;;;6.90;1.70;;;;;;;;;;5066632;28;20198;-77
2022/02/25 07:53:14;;;;;;;5.78;2.38;;;;;;;;;;5069358;28;20561;-79
2022/02/25 07:55:41;;;;;;;3.58;1.80;;;;;;;;;;5063915;28;20198;-75
2022/02/25 07:58:08;;;;;;;5.57;1.70;;;;;;;;;;5059526;28;20656;-75
2022/02/25 08:00:35;;;;;;;4.00;1.75;;;;;;;;;;5065382;28;20256;-73
2022/02/25 08:03:04;;;;;;;5.53;1.70;;;;;;;;;;5064768;28;20683;-75
2022/02/25 08:05:31;;;;;;;7.53;2.40;;;;;;;;;;5071416;28;20198;-73
2022/02/25 08:07:59;;;;;;;3.95;1.80;;;;;;;;;;5067299;28;20202;-75
2022/02/25 08:10:26;;;;;;;6.55;1.77;;;;;;;;;;5063980;28;20195;-74
2022/02/25 08:12:53;;;;;;;5.20;1.63;;;;;;;;;;5071260;28;20202;-74
2022/02/25 08:15:20;;;;;;;3.47;2.00;;;;;;;;;;5064094;28;20202;-83
2022/02/25 08:17:48;;;;;;;4.97;1.55;;;;;;;;;;5057914;28;20565;-75
2022/02/25 08:20:17;;;;;;;6.05;2.15;;;;;;;;;;5056164;28;20195;-79
2022/02/25 08:22:44;;;;;;;8.50;2.15;;;;;;;;;;5060378;28;20218;-82
2022/02/25 08:25:12;;;;;;;6.35;2.17;;;;;;;;;;5058385;28;20225;-79
2022/02/25 08:27:39;;;;;;;4.32;2.60;;;;;;;;;;5065430;28;20198;-78
2022/02/25 08:30:07;;;;;;;6.88;2.10;;;;;;;;;;5068902;28;20203;-78
2022/02/25 08:32:34;;;;;;;3.03;1.63;;;;;;;;;;5058790;28;20195;-78
2022/02/25 08:35:02;;;;;;;2.55;1.52;;;;;;;;;;5062470;28;20576;-76
2022/02/25 08:37:30;;;;;;;8.43;2.10;;;;;;;;;;5058933;28;20197;-76
2022/02/25 08:39:58;;;;;;;5.82;1.60;;;;;;;;;;5062517;28;20225;-76
2022/02/25 08:42:25;;;;;;;4.03;2.78;;;;;;;;;;5056219;28;20227;-75
2022/02/25 08:44:52;;;;;;;6.57;2.33;;;;;;;;;;5072959;28;20190;-76
2022/02/25 08:47:19;;;;;;;6.38;2.00;;;;;;;;;;5062012;28;20198;-78
2022/02/25 08:49:46;;;;;;;4.55;2.45;;;;;;;;;;5060180;28;20194;-81
2022/02/25 08:52:14;;;;;;;4.47;1.60;;;;;;;;;;5066830;28;20198;-77
2022/02/25 08:54:42;;;;;;;2.83;1.75;;;;;;;;;;5067307;28;20289;-82
2022/02/25 08:57:09;;;;;;;5.75;1.90;;;;;;;;;;5059027;28;20303;-78
2022/02/25 08:59:37;;;;;;;7.72;2.55;;;;;;;;;;5065202;28;20194;-77
2022/02/25 09:02:05;;;;;;;6.35;2.10;;;;;;;;;;5063330;28;20468;-78
2022/02/25 09:04:33;;;;;;;6.82;2.13;;;;;;;;;;5058818;28;20206;-84
2022/02/25 09:07:00;;;;;;;6.25;1.90;;;;;;;;;;5059436;28;20194;-77
2022/02/25 09:09:27;;;;;;;9.00;2.88;;;;;;;;;;5065245;28;20194;-77
2022/02/25 09:11:55;;;;;;;6.35;2.97;;;;;;;;;;5057716;28;20310;-77
2022/02/25 09:14:23;;;;;;;4.50;2.22;;;;;;;;;;5066647;28;20201;-78
2022/02/25 09:16:50;;;;;;;4.63;2.05;;;;;;;;;;5063198;28;20201;-79
2022/02/25 09:19:17;;;;;;;6.72;2.55;;;;;;;;;;5065186;28;20209;-78
2022/02/25 09:21:44;;;;;;;4.22;2.63;;;;;;;;;;5059288;28;20284;-81
2022/02/25 09:24:11;;;;;;;9.48;3.17;;;;;;;;;;5064500;28;20550;-76
2022/02/25 09:26:38;;;;;;;3.75;2.15;;;;;;;;;;5065864;28;20693;-77
2022/02/25 09:29:07;;;;;;;10.65;2.88;;;;;;;;;;5069357;28;20194;-77
2022/02/25 09:31:34;;;;;;;9.90;2.95;;;;;;;;;;5067016;28;20666;-76
2022/02/25 09:34:01;;;;;;;5.20;2.00;;;;;;;;;;5066122;28;20284;-79
2022/02/25 09:36:28;;;;;;;5.65;2.40;;;;;;;;;;5068074;28;20194;-77
2022/02/25 09:38:55;;;;;;;3.97;2.22;;;;;;;;;;5056792;28;20240;-80
2022/02/25 09:41:22;;;;;;;6.85;2.95;;;;;;;;;;5053064;28;20198;-81
2022/02/25 09:43:49;;;;;;;7.72;2.97;;;;;;;;;;5064792;28;20581;-78
2022/02/25 09:46:18;;;;;;;5.18;2.65;;;;;;;;;;5062568;28;20218;-78
2022/02/25 09:48:45;;;;;;;5.57;2.65;;;;;;;;;;5066987;28;20231;-77
2022/02/25 09:51:12;;;;;;;6.63;2.20;;;;;;;;;;5060138;28;20600;-79
2022/02/25 09:53:39;;;;;;;5.72;2.38;;;;;;;;;;5072150;28;20194;-79
2022/02/25 09:56:07;;;;;;;3.03;1.90;;;;;;;;;;5057385;28;20224;-81
2022/02/25 09:58:34;;;;;;;8.48;2.80;;;;;;;;;;5061639;28;20198;-78
2022/02/25 10:01:01;;;;;;;6.95;2.28;;;;;;;;;;5063391;28;20217;-79
2022/02/25 10:03:33;;;;;;;7.65;2.67;;;;;;;;;;5062125;28;20233;-79
2022/02/25 10:06:04;;;;;;;4.85;3.25;;;;;;;;;;5064000;28;20229;-80
2022/02/25 10:08:31;;;;;;;4.90;2.55;;;;;;;;;;5064154;28;20194;-80
2022/02/25 10:10:59;;;;;;;5.45;3.35;;;;;;;;;;5057249;28;20198;-78
2022/02/25 10:13:27;;;;;;;8.70;2.72;;;;;;;;;;5062423;28;20207;-77
2022/02/25 10:15:56;;;;;;;8.60;2.58;;;;;;;;;;5066957;28;20285;-79
2022/02/25 10:18:25;;;;;;;6.03;3.17;;;;;;;;;;5063000;28;20186;-80
2022/02/25 10:21:01;;;;;;;8.35;3.42;;;;;;;;;;5064197;28;20225;-77
2022/02/25 10:23:29;;;;;;;7.43;3.03;;;;;;;;;;5067981;28;20202;-80
2022/02/25 10:26:06;;;;;;;5.20;3.38;;;;;;;;;;5062610;28;20221;-78
2022/02/25 10:28:34;;;;;;;8.25;2.40;;;;;;;;;;5063884;28;20290;-79
2022/02/25 10:31:21;;;;;;;6.70;2.60;;;;;;;;;;5064697;28;20195;-78
2022/02/25 10:33:59;;;;;;;7.35;2.22;;;;;;;;;;5065929;28;20259;-78
2022/02/25 10:36:29;;;;;;;2.97;2.20;;;;;;;;;;5068442;28;20205;-80
2022/02/25 10:38:56;;;;;;;4.80;2.58;;;;;;;;;;5063465;28;20604;-84
2022/02/25 10:41:23;;;;;;;9.90;3.10;;;;;;;;;;5058502;28;20595;-77
2022/02/25 10:43:50;;;;;;;11.10;3.50;;;;;;;;;;5070597;28;20685;-78
2022/02/25 10:46:17;;;;;;;7.93;3.10;;;;;;;;;;5068942;28;20276;-77
2022/02/25 10:48:46;;;;;;;10.75;3.00;;;;;;;;;;5065945;28;20214;-78
2022/02/25 10:51:22;;;;;;;3.92;2.28;;;;;;;;;;5056710;28;20861;-83
2022/02/25 10:53:51;;;;;;;5.40;2.50;;;;;;;;;;5065477;28;20224;-76
2022/02/25 10:56:19;;;;;;;8.02;2.90;;;;;;;;;;5066881;28;20202;-78
2022/02/25 10:58:51;;;;;;;6.75;3.22;;;;;;;;;;5063194;28;20205;-80
2022/02/25 11:01:19;;;;;;;4.65;2.47;;;;;;;;;;5067194;28;20264;-80
2022/02/25 11:04:00;;;;;;;3.45;2.20;;;;;;;;;;5068515;28;20677;-79
2022/02/25 11:06:29;;;;;;;5.18;2.55;;;;;;;;;;5050361;28;20621;-80
2022/02/25 11:08:58;;;;;;;4.43;2.08;;;;;;;;;;5067707;28;20202;-77
2022/02/25 11:11:25;;;;;;;7.30;2.03;;;;;;;;;;5061032;28;20317;-80
2022/02/25 11:13:53;;;;;;;7.22;2.25;;;;;;;;;;5063223;28;20632;-79
2022/02/25 11:16:20;;;;;;;5.47;2.05;;;;;;;;;;5069751;28;20210;-78
2022/02/25 11:18:48;;;;;;;4.32;3.05;;;;;;;;;;5069951;28;20661;-79
2022/02/25 11:21:16;;;;;;;5.97;3.30;;;;;;;;;;5065519;28;20221;-78
2022/02/25 11:23:44;;;;;;;7.13;3.50;;;;;;;;;;5063803;28;20226;-79
2022/02/25 11:26:13;;;;;;;6.47;2.70;;;;;;;;;;5065452;28;20225;-81
2022/02/25 11:28:40;;;;;;;14.38;3.88;;;;;;;;;;5069519;28;20186;-79
2022/02/25 11:31:12;;;;;;;5.63;2.25;;;;;;;;;;5058792;28;20251;-79
2022/02/25 11:33:39;;;;;;;6.80;2.40;;;;;;;;;;5060475;28;20218;-80
2022/02/25 11:36:08;;;;;;;9.90;2.80;;;;;;;;;;5060709;28;20660;-81
2022/02/25 11:38:38;;;;;;;8.98;3.20;;;;;;;;;;5066833;28;20205;-80
2022/02/25 11:41:06;;;;;;;4.10;3.70;;;;;;;;;;5067433;28;20198;-79
2022/02/25 11:43:39;;;;;;;5.15;3.42;;;;;;;;;;5061381;28;20233;-77
2022/02/25 11:46:07;;;;;;;5.72;2.80;;;;;;;;;;5063835;28;20683;-76
2022/02/25 11:48:41;;;;;;;4.15;2.60;;;;;;;;;;5064127;28;20190;-77
2022/02/25 11:51:09;;;;;;;5.68;2.83;;;;;;;;;;5052016;28;20198;-78
2022/02/25 11:53:36;;;;;;;6.05;3.20;;;;;;;;;;5065113;28;20205;-77
2022/02/25 11:56:16;;;;;;;3.88;2.13;;;;;;;;;;5070122;28;20284;-80
2022/02/25 11:58:47;;;;;;;8.48;3.65;;;;;;;;;;5066658;28;20202;-80
2022/02/25 12:01:18;;;;;;;6.80;3.53;;;;;;;;;;5063475;28;20222;-80
2022/02/25 12:04:05;;;;;;;10.20;3.45;;;;;;;;;;5057455;28;20219;-77
2022/02/25 12:06:57;;;;;;;4.10;2.42;;;;;;;;;;5052484;28;20618;-77
2022/02/25 12:09:39;;;;;;;4.80;2.55;;;;;;;;;;5063767;28;20198;-79
2022/02/25 12:12:22;;;;;;;5.07;2.47;;;;;;;;;;5065133;28;20194;-77
2022/02/25 12:15:00;;;;;;;5.72;2.72;;;;;;;;;;5062695;28;20225;-79
2022/02/25 12:17:36;;;;;;;7.45;2.47;;;;;;;;;;5063974;28;21286;-78
2022/02/25 12:20:07;;;;;;;4.50;2.65;;;;;;;;;;5058149;28;20211;-78
2022/02/25 12:22:47;;;;;;;9.35;2.75;;;;;;;;;;5065334;28;20218;-77
2022/02/25 12:25:15;;;;;;;4.28;2.53;;;;;;;;;;5048957;28;20218;-78
2022/02/25 12:27:42;;;;;;;8.07;2.70;;;;;;;;;;5061994;28;20199;-82
2022/02/25 12:30:24;;;;;;;5.68;2.50;;;;;;;;;;5059004;28;20225;-77
2022/02/25 12:32:57;;;;;;;4.40;2.53;;;;;;;;;;5062485;28;20194;-83
2022/02/25 12:35:39;;;;;;;12.02;2.72;;;;;;;;;;5061980;28;20195;-78
2022/02/25 12:38:07;;;;;;;6.55;2.00;;;;;;;;;;5060189;28;20198;-77
2022/02/25 12:40:34;;;;;;;6.93;2.08;;;;;;;;;;5053931;28;20601;-79
2022/02/25 12:43:04;;;;;;;6.10;2.72;;;;;;;;;;5059402;28;20296;-79
2022/02/25 12:45:31;;;;;;;5.53;1.95;;;;;;;;;;5063709;28;20669;-78
2022/02/25 12:48:00;;;;;;;7.35;2.25;;;;;;;;;;5060714;28;20681;-77
2022/02/25 12:50:28;;;;;;;6.15;2.25;;;;;;;;;;5055519;28;20199;-78
2022/02/25 12:53:03;;;;;;;7.43;2.13;;;;;;;;;;5063662;28;20194;-75
2022/02/25 12:55:30;;;;;;;2.45;1.52;;;;;;;;;;5060300;28;20201;-76
2022/02/25 12:57:57;;;;;;;9.82;2.67;;;;;;;;;;5065723;28;20201;-77
2022/02/25 13:00:25;;;;;;;4.35;1.70;;;;;;;;;;5059878;28;20237;-76
2022/02/25 13:02:53;;;;;;;6.90;2.33;;;;;;;;;;5060164;28;20198;-75
2022/02/25 13:05:21;;;;;;;5.35;1.98;;;;;;;;;;5064098;28;20209;-76
2022/02/25 13:07:56;;;;;;;3.25;1.88;;;;;;;;;;5065900;28;20208;-78
2022/02/25 13:10:25;;;;;;;4.70;1.92;;;;;;;;;;5066050;28;20245;-78
2022/02/25 13:12:52;;;;;;;5.95;1.80;;;;;;;;;;5061893;28;20206;-78
2022/02/25 13:15:25;;;;;;;5.00;1.55;;;;;;;;;;5061735;28;20285;-77
2022/02/25 13:17:52;;;;;;;7.15;2.13;;;;;;;;;;5063776;28;20289;-75
2022/02/25 13:20:19;;;;;;;3.53;1.45;;;;;;;;;;5063496;28;20198;-79
2022/02/25 13:22:49;;;;;;;7.00;1.70;;;;;;;;;;5064388;28;20202;-75
2022/02/25 13:25:18;;;;;;;5.30;2.10;;;;;;;;;;5060895;28;20755;-75
2022/02/25 13:27:45;;;;;;;11.02;2.67;;;;;;;;;;5057574;28;20637;-75
2022/02/25 13:30:14;;;;;;;3.30;1.80;;;;;;;;;;5063730;28;20194;-76
2022/02/25 13:32:42;;;;;;;3.28;2.13;;;;;;;;;;5065786;28;20277;-75
2022/02/25 13:35:10;;;;;;;4.28;2.00;;;;;;;;;;5060207;28;20202;-75
2022/02/25 13:37:45;;;;;;;2.72;1.90;;;;;;;;;;5062462;28;20195;-79
2022/02/25 13:40:26;;;;;;;5.55;2.08;;;;;;;;;;5061662;28;20205;-75
2022/02/25 13:42:53;;;;;;;5.55;1.50;;;;;;;;;;5061521;28;20214;-78
2022/02/25 13:45:28;;;;;;;6.28;1.88;;;;;;;;;;5060016;28;20583;-75
2022/02/25 13:53:34;;;;;;;2.95;1.52;;;;;;;;;;5063231;28;20201;-77
2022/02/25 13:56:07;;;;;;;3.08;2.05;;;;;;;;;;5062028;28;20554;-76
2022/02/25 13:58:34;;;;;;;3.00;1.20;;;;;;;;;;5059143;28;20206;-77
2022/02/25 14:01:02;;;;;;;5.78;1.75;;;;;;;;;;5060442;28;20991;-75
2022/02/25 14:03:38;;;;;;;4.43;1.60;;;;;;;;;;5059888;28;20190;-75
2022/02/25 14:06:22;;;;;;;4.60;1.73;;;;;;;;;;5063975;28;20198;-77
2022/02/25 14:08:49;;;;;;;3.85;1.30;;;;;;;;;;5062788;28;20202;-83
2022/02/25 14:11:32;;;;;;;4.25;2.35;;;;;;;;;;5060342;28;20198;-75
2022/02/25 14:13:59;;;;;;;4.57;1.50;;;;;;;;;;5060964;28;20205;-78
2022/02/25 14:16:26;;;;;;;3.88;1.40;;;;;;;;;;5063746;28;20194;-75
2022/02/25 14:18:53;;;;;;;1.70;1.30;;;;;;;;;;5061110;28;20202;-77
2022/02/25 14:21:30;;;;;;;2.63;1.50;;;;;;;;;;5060010;28;20213;-80
2022/02/25 14:23:57;;;;;;;5.30;2.17;;;;;;;;;;5058593;28;20221;-78
2022/02/25 14:26:27;;;;;;;2.83;1.65;;;;;;;;;;5054795;28;20237;-76
2022/02/25 14:28:55;;;;;;;7.22;2.33;;;;;;;;;;5062325;28;20209;-75
2022/02/25 14:31:25;;;;;;;4.90;1.83;;;;;;;;;;5061123;28;20247;-75
2022/02/25 14:33:52;;;;;;;4.07;1.90;;;;;;;;;;5063328;28;20279;-75
2022/02/25 14:36:20;;;;;;;10.18;1.80;;;;;;;;;;5061464;28;20207;-76
2022/02/25 14:38:48;;;;;;;5.20;1.63;;;;;;;;;;5063704;28;20205;-74
2022/02/25 14:41:16;;;;;;;4.20;1.40;;;;;;;;;;5063480;28;20194;-78
2022/02/25 14:43:43;;;;;;;2.78;1.42;;;;;;;;;;5060388;28;20206;-77
2022/02/25 14:46:13;;;;;;;2.97;1.15;;;;;;;;;;5069282;28;20201;-76
2022/02/25 14:48:40;;;;;;;2.00;1.75;;;;;;;;;;5057055;28;20603;-75
2022/02/25 14:51:07;;;;;;;2.00;1.30;;;;;;;;;;5064810;28;20194;-74
2022/02/25 14:53:35;;;;;;;5.65;1.30;;;;;;;;;;5066054;28;20628;-74
2022/02/25 14:56:02;;;;;;;3.33;1.75;;;;;;;;;;5057713;28;20204;-78
2022/02/25 14:58:29;;;;;;;3.00;1.30;;;;;;;;;;5054849;28;20209;-75
2022/02/25 15:00:56;;;;;;;1.95;1.55;;;;;;;;;;5059929;28;20202;-75
2022/02/25 15:03:25;;;;;;;1.70;1.60;;;;;;;;;;5057201;28;20202;-75